createdAt,value
2019-04-05T00:02:05.526Z,99.90
2019-04-05T00:04:35.159Z,99.90
2019-04-05T00:07:05.137Z,99.90
2019-04-05T00:09:34.737Z,99.90
2019-04-05T00:12:04.029Z,99.90
2019-04-05T00:14:33.393Z,99.90
2019-04-05T00:17:03.032Z,99.90
2019-04-05T00:19:33.103Z,99.90
2019-04-05T00:22:02.762Z,99.90
2019-04-05T00:24:32.110Z,99.90
2019-04-05T00:27:01.377Z,99.90
2019-04-05T00:29:30.727Z,99.90
2019-04-05T00:32:00.131Z,99.90
2019-04-05T00:34:29.526Z,99.90
2019-04-05T00:36:58.797Z,99.90
2019-04-05T00:39:28.268Z,99.90
2019-04-05T00:41:57.556Z,99.90
2019-04-05T00:44:27.497Z,99.90
2019-04-05T00:46:57.147Z,99.90
2019-04-05T00:49:26.500Z,99.90
2019-04-05T00:51:55.768Z,99.90
2019-04-05T00:54:25.497Z,99.90
2019-04-05T00:56:54.780Z,99.90
2019-04-05T00:59:24.100Z,99.90
2019-04-05T01:01:53.809Z,99.90
2019-04-05T01:04:23.107Z,99.90
2019-04-05T01:06:52.385Z,99.90
2019-04-05T01:09:21.744Z,99.90
2019-04-05T01:11:51.405Z,99.90
2019-04-05T01:14:22.966Z,99.90
2019-04-05T01:16:52.361Z,99.90
2019-04-05T01:19:22.465Z,99.90
2019-04-05T01:21:53.712Z,99.90
2019-04-05T01:24:24.701Z,99.90
2019-04-05T01:26:55.863Z,99.90
2019-04-05T01:29:26.477Z,99.90
2019-04-05T01:31:55.776Z,99.90
2019-04-05T01:34:25.050Z,99.90
2019-04-05T01:36:54.639Z,99.90
2019-04-05T01:39:24.004Z,99.90
2019-04-05T01:41:53.491Z,99.90
2019-04-05T01:44:23.045Z,99.90
2019-04-05T01:46:52.950Z,99.90
2019-04-05T01:49:22.505Z,99.90
2019-04-05T01:51:52.233Z,99.90
2019-04-05T01:54:21.441Z,99.90
2019-04-05T01:56:50.719Z,99.90
2019-04-05T01:59:20.015Z,99.90
2019-04-05T02:01:50.011Z,99.90
2019-04-05T02:04:19.299Z,99.90
2019-04-05T02:06:48.613Z,99.90
2019-04-05T02:09:17.997Z,99.90
2019-04-05T02:11:47.347Z,99.90
2019-04-05T02:14:16.938Z,99.90
2019-04-05T02:16:46.215Z,99.90
2019-04-05T02:19:15.488Z,99.90
2019-04-05T02:21:44.805Z,99.90
2019-04-05T02:24:14.107Z,99.90
2019-04-05T02:26:43.378Z,99.90
2019-04-05T02:29:12.661Z,99.90
2019-04-05T02:31:42.294Z,99.90
2019-04-05T02:34:11.606Z,99.90
2019-04-05T02:36:41.308Z,99.90
2019-04-05T02:39:11.015Z,99.90
2019-04-05T02:41:41.317Z,99.90
2019-04-05T02:44:13.807Z,99.90
2019-04-05T02:46:46.398Z,99.90
2019-04-05T02:49:16.630Z,99.90
2019-04-05T02:51:49.049Z,99.90
2019-04-05T02:54:19.457Z,99.90
2019-04-05T02:56:50.265Z,99.90
2019-04-05T02:59:20.250Z,99.90
2019-04-05T03:01:50.571Z,99.90
2019-04-05T03:04:19.759Z,99.90
2019-04-05T03:06:51.580Z,99.90
2019-04-05T03:09:22.848Z,99.90
2019-04-05T03:11:52.226Z,99.90
2019-04-05T03:14:22.586Z,99.90
2019-04-05T03:16:54.417Z,99.90
2019-04-05T03:19:27.229Z,99.90
2019-04-05T03:22:04.329Z,99.90
2019-04-05T03:24:36.539Z,99.90
2019-04-05T03:27:35.666Z,99.90
2019-04-05T03:30:06.161Z,99.90
2019-04-05T03:32:35.995Z,99.90
2019-04-05T03:35:05.704Z,99.90
2019-04-05T03:37:35.607Z,99.90
2019-04-05T03:40:05.669Z,99.90
2019-04-05T03:42:35.577Z,99.90
2019-04-05T03:45:05.567Z,99.90
2019-04-05T03:47:35.113Z,99.90
2019-04-05T03:50:04.808Z,99.90
2019-04-05T03:52:34.148Z,99.90
2019-04-05T03:55:03.847Z,99.90
2019-04-05T03:57:33.462Z,99.90
2019-04-05T04:00:02.719Z,99.90
2019-04-05T04:02:32.132Z,99.90
2019-04-05T04:05:01.513Z,99.90
2019-04-05T04:07:31.130Z,99.90
2019-04-05T04:10:00.293Z,99.90
2019-04-05T04:12:29.865Z,99.90
2019-04-05T04:15:14.162Z,99.90
2019-04-05T04:17:45.109Z,99.90
2019-04-05T04:20:41.629Z,99.90
2019-04-05T04:23:12.510Z,99.90
2019-04-05T04:25:42.144Z,99.90
2019-04-05T04:28:11.632Z,99.90
2019-04-05T04:30:41.826Z,99.90
2019-04-05T04:33:11.603Z,99.90
2019-04-05T04:35:41.754Z,99.90
2019-04-05T04:38:11.099Z,99.90
2019-04-05T04:40:41.143Z,99.90
2019-04-05T04:43:11.001Z,99.90
2019-04-05T04:45:40.543Z,99.90
2019-04-05T04:48:09.929Z,99.90
2019-04-05T04:50:39.903Z,99.90
2019-04-05T04:53:10.153Z,99.90
2019-04-05T04:55:39.751Z,99.90
2019-04-05T04:58:09.122Z,99.90
2019-04-05T05:00:39.041Z,99.90
2019-04-05T05:03:08.855Z,99.90
2019-04-05T05:05:38.378Z,99.90
2019-04-05T05:08:08.322Z,99.90
2019-04-05T05:10:37.648Z,99.90
2019-04-05T05:13:07.013Z,99.90
2019-04-05T05:15:37.599Z,99.90
2019-04-05T05:18:07.119Z,99.90
2019-04-05T05:20:36.575Z,99.90
2019-04-05T05:23:06.118Z,99.90
2019-04-05T05:25:36.580Z,99.90
2019-04-05T05:28:06.219Z,99.90
2019-04-05T05:30:35.590Z,99.90
2019-04-05T05:33:05.141Z,99.90
2019-04-05T05:35:34.609Z,99.90
2019-04-05T05:38:04.065Z,99.90
2019-04-05T05:40:35.549Z,99.90
2019-04-05T05:43:05.083Z,99.90
2019-04-05T05:45:34.399Z,99.90
2019-04-05T05:48:03.628Z,99.90
2019-04-05T05:50:33.273Z,99.90
2019-04-05T05:53:02.760Z,99.90
2019-04-05T05:55:32.009Z,99.90
2019-04-05T05:58:01.162Z,99.90
2019-04-05T06:00:31.137Z,99.90
2019-04-05T06:03:00.485Z,99.90
2019-04-05T06:05:29.655Z,99.90
2019-04-05T06:08:01.080Z,99.90
2019-04-05T06:10:30.803Z,99.90
2019-04-05T06:13:00.599Z,99.90
2019-04-05T06:15:30.147Z,99.90
2019-04-05T06:18:04.913Z,99.90
2019-04-05T06:20:30.933Z,99.90
2019-04-05T06:23:00.207Z,99.90
2019-04-05T06:25:29.751Z,99.90
2019-04-05T06:27:59.888Z,99.90
2019-04-05T06:30:29.322Z,99.90
2019-04-05T06:32:58.765Z,99.90
2019-04-05T06:35:27.935Z,99.90
2019-04-05T06:37:57.087Z,99.90
2019-04-05T06:40:26.355Z,99.90
2019-04-05T06:42:55.599Z,99.90
2019-04-05T06:45:24.877Z,99.90
2019-04-05T06:47:54.056Z,99.90
2019-04-05T06:50:23.537Z,99.90
2019-04-05T06:52:53.006Z,99.90
2019-04-05T06:55:22.222Z,99.90
2019-04-05T06:57:51.499Z,99.90
2019-04-05T07:00:28.145Z,99.90
2019-04-05T07:02:58.323Z,99.90
2019-04-05T07:05:27.581Z,99.90
2019-04-05T07:07:56.763Z,99.90
2019-04-05T07:10:26.287Z,99.90
2019-04-05T07:12:55.549Z,99.90
2019-04-05T07:15:24.867Z,99.90
2019-04-05T07:17:54.569Z,99.90
2019-04-05T07:20:23.980Z,99.90
2019-04-05T07:22:53.602Z,99.90
2019-04-05T07:25:22.863Z,99.90
2019-04-05T07:27:52.132Z,99.90
2019-04-05T07:30:21.911Z,99.90
2019-04-05T07:32:51.129Z,99.90
2019-04-05T07:35:32.427Z,99.90
2019-04-05T07:37:51.731Z,99.90
2019-04-05T07:40:22.358Z,99.90
2019-04-05T07:42:51.600Z,99.30
2019-04-05T07:45:21.413Z,98.40
2019-04-05T07:47:50.652Z,98.80
2019-04-05T07:50:19.887Z,98.30
2019-04-05T07:52:49.325Z,98.00
2019-04-05T07:55:18.755Z,96.70
2019-04-05T07:57:48.385Z,96.80
2019-04-05T08:00:49.996Z,95.80
2019-04-05T08:03:19.854Z,96.30
2019-04-05T08:05:50.175Z,96.00
2019-04-05T08:08:41.409Z,95.60
2019-04-05T08:11:10.792Z,94.70
2019-04-05T08:13:41.734Z,95.20
2019-04-05T08:16:11.595Z,93.30
2019-04-05T08:18:41.137Z,93.50
2019-04-05T08:21:10.298Z,92.70
2019-04-05T08:23:39.484Z,92.80
2019-04-05T08:26:09.106Z,91.70
2019-04-05T08:28:38.264Z,92.20
2019-04-05T08:31:10.825Z,92.30
2019-04-05T08:33:38.991Z,91.50
2019-04-05T08:36:08.157Z,89.50
2019-04-05T08:38:39.715Z,88.90
2019-04-05T08:41:08.635Z,88.70
2019-04-05T08:43:38.140Z,89.40
2019-04-05T08:46:07.408Z,85.40
2019-04-05T08:48:36.640Z,84.10
2019-04-05T08:51:06.118Z,84.60
2019-04-05T08:53:35.631Z,80.80
2019-04-05T08:56:04.941Z,81.40
2019-04-05T08:58:34.162Z,81.20
2019-04-05T09:01:03.803Z,78.60
2019-04-05T09:03:33.066Z,76.80
2019-04-05T09:06:02.268Z,79.90
2019-04-05T09:08:31.819Z,77.10
2019-04-05T09:11:01.436Z,75.10
2019-04-05T09:13:30.683Z,71.50
2019-04-05T09:15:59.851Z,70.20
2019-04-05T09:18:28.994Z,67.10
2019-04-05T09:20:58.192Z,66.50
2019-04-05T09:23:27.375Z,63.20
2019-04-05T09:25:56.537Z,61.50
2019-04-05T09:28:26.085Z,60.30
2019-04-05T09:30:55.693Z,59.00
2019-04-05T09:33:29.902Z,58.80
2019-04-05T09:35:59.395Z,57.20
2019-04-05T09:38:28.731Z,57.00
2019-04-05T09:40:57.967Z,56.40
2019-04-05T09:43:27.200Z,54.40
2019-04-05T09:45:56.441Z,55.40
2019-04-05T09:48:25.721Z,56.90
2019-04-05T09:50:54.988Z,55.20
2019-04-05T09:53:24.533Z,55.70
2019-04-05T09:55:53.857Z,52.30
2019-04-05T09:58:23.004Z,51.60
2019-04-05T10:00:52.817Z,51.10
2019-04-05T10:03:22.410Z,51.10
2019-04-05T10:05:51.965Z,53.60
2019-04-05T10:08:21.135Z,53.00
2019-04-05T10:10:50.991Z,50.30
2019-04-05T10:13:20.541Z,50.00
2019-04-05T10:15:50.446Z,49.30
2019-04-05T10:18:19.755Z,48.70
2019-04-05T10:20:49.886Z,47.90
2019-04-05T10:23:19.057Z,48.80
2019-04-05T10:25:48.273Z,47.80
2019-04-05T10:28:17.809Z,47.40
2019-04-05T10:30:47.067Z,45.80
2019-04-05T10:33:16.401Z,46.80
2019-04-05T10:35:45.720Z,47.30
2019-04-05T10:38:15.044Z,46.10
2019-04-05T10:40:44.315Z,45.00
2019-04-05T10:43:13.633Z,45.30
2019-04-05T10:45:42.884Z,45.40
2019-04-05T10:48:12.202Z,45.20
2019-04-05T10:50:41.486Z,45.90
2019-04-05T10:53:11.017Z,44.40
2019-04-05T10:55:40.262Z,43.70
2019-04-05T10:58:09.550Z,43.90
2019-04-05T11:00:39.176Z,42.90
2019-04-05T11:03:08.452Z,42.50
2019-04-05T11:05:37.706Z,42.20
2019-04-05T11:08:07.201Z,42.10
2019-04-05T11:10:36.460Z,40.80
2019-04-05T11:13:05.660Z,42.00
2019-04-05T11:15:34.899Z,41.90
2019-04-05T11:18:04.711Z,43.10
2019-04-05T11:20:34.040Z,43.00
2019-04-05T11:23:03.628Z,42.90
2019-04-05T11:25:32.960Z,43.00
2019-04-05T11:28:02.529Z,42.30
2019-04-05T11:30:49.996Z,42.30
2019-04-05T11:33:19.941Z,42.10
2019-04-05T11:35:49.515Z,42.70
2019-04-05T11:38:24.247Z,42.60
2019-04-05T11:40:53.634Z,42.60
2019-04-05T11:43:26.984Z,41.30
2019-04-05T11:45:57.153Z,40.40
2019-04-05T11:48:28.262Z,40.60
2019-04-05T11:50:57.730Z,40.00
2019-04-05T11:53:26.904Z,38.80
2019-04-05T11:55:56.547Z,37.90
2019-04-05T11:58:26.234Z,39.10
2019-04-05T12:00:59.767Z,38.90
2019-04-05T12:03:29.711Z,39.00
2019-04-05T12:05:58.941Z,39.90
2019-04-05T12:08:28.108Z,38.70
2019-04-05T12:10:57.283Z,38.40
2019-04-05T12:13:26.523Z,37.90
2019-04-05T12:15:58.015Z,37.50
2019-04-05T12:18:26.787Z,39.00
2019-04-05T12:21:00.268Z,39.00
2019-04-05T12:23:27.186Z,38.70
2019-04-05T12:25:56.749Z,37.80
2019-04-05T12:28:26.495Z,36.90
2019-04-05T12:30:55.758Z,35.90
2019-04-05T12:33:24.911Z,37.20
2019-04-05T12:35:56.577Z,39.70
2019-04-05T12:38:32.939Z,39.30
2019-04-05T12:41:05.030Z,38.70
2019-04-05T12:43:34.635Z,37.80
2019-04-05T12:46:06.599Z,38.50
2019-04-05T12:48:35.830Z,38.30
2019-04-05T12:51:05.947Z,38.40
2019-04-05T12:53:35.326Z,38.80
2019-04-05T12:56:05.720Z,38.20
2019-04-05T12:58:35.041Z,38.50
2019-04-05T13:01:04.552Z,39.10
2019-04-05T13:03:33.918Z,39.00
2019-04-05T13:06:03.624Z,40.10
2019-04-05T13:08:32.818Z,39.50
2019-04-05T13:11:02.062Z,41.10
2019-04-05T13:13:31.534Z,42.60
2019-04-05T13:16:01.155Z,43.00
2019-04-05T13:18:31.718Z,43.70
2019-04-05T13:21:14.000Z,43.20
2019-04-05T13:23:33.774Z,43.60
2019-04-05T13:26:03.991Z,44.30
2019-04-05T13:28:33.746Z,43.20
2019-04-05T13:31:03.808Z,43.10
2019-04-05T13:33:33.031Z,42.70
2019-04-05T13:36:02.391Z,41.80
2019-04-05T13:38:31.700Z,42.80
2019-04-05T13:41:01.526Z,42.80
2019-04-05T13:43:31.979Z,42.90
2019-04-05T13:46:02.432Z,42.20
2019-04-05T13:48:31.750Z,41.00
2019-04-05T13:51:01.108Z,41.80
2019-04-05T13:53:30.368Z,42.60
2019-04-05T13:55:59.949Z,42.70
2019-04-05T13:58:29.194Z,43.30
2019-04-05T14:00:58.476Z,43.80
2019-04-05T14:03:27.726Z,43.80
2019-04-05T14:05:56.910Z,44.30
2019-04-05T14:08:26.289Z,44.60
2019-04-05T14:10:55.902Z,44.80
2019-04-05T14:13:25.198Z,43.30
2019-04-05T14:15:55.110Z,43.90
2019-04-05T14:18:25.111Z,43.40
2019-04-05T14:20:54.714Z,44.30
2019-04-05T14:23:24.220Z,44.50
2019-04-05T14:25:53.540Z,43.60
2019-04-05T14:28:23.425Z,43.00
2019-04-05T14:30:52.800Z,43.70
2019-04-05T14:33:24.508Z,44.50
2019-04-05T14:35:54.744Z,44.50
2019-04-05T14:38:24.298Z,44.80
2019-04-05T14:40:53.947Z,44.40
2019-04-05T14:43:23.176Z,44.80
2019-04-05T14:45:52.330Z,46.30
2019-04-05T14:48:21.504Z,46.20
2019-04-05T14:50:50.760Z,46.10
2019-04-05T14:53:20.298Z,46.80
2019-04-05T14:55:49.479Z,46.90
2019-04-05T14:58:19.357Z,46.70
2019-04-05T15:00:48.778Z,46.50
2019-04-05T15:03:18.421Z,47.00
2019-04-05T15:05:48.418Z,46.90
2019-04-05T15:08:20.383Z,46.90
2019-04-05T15:10:51.236Z,46.60
2019-04-05T15:13:19.651Z,47.30
2019-04-05T15:15:48.970Z,46.50
2019-04-05T15:18:19.778Z,46.60
2019-04-05T15:20:49.642Z,46.60
2019-04-05T15:23:19.158Z,47.40
2019-04-05T15:25:49.897Z,48.40
2019-04-05T15:28:19.594Z,47.30
2019-04-05T15:30:49.694Z,48.00
2019-04-05T15:33:19.140Z,48.20
2019-04-05T15:35:48.342Z,47.50
2019-04-05T15:38:17.709Z,47.90
2019-04-05T15:40:47.078Z,47.60
2019-04-05T15:43:16.675Z,47.50
2019-04-05T15:45:46.227Z,47.60
2019-04-05T15:48:15.396Z,47.80
2019-04-05T15:50:44.630Z,48.80
2019-04-05T15:53:13.877Z,49.50
2019-04-05T15:55:43.092Z,49.60
2019-04-05T15:58:13.030Z,49.80
2019-04-05T16:00:44.046Z,49.80
2019-04-05T16:03:14.562Z,50.00
2019-04-05T16:05:45.612Z,50.40
2019-04-05T16:08:18.068Z,50.30
2019-04-05T16:10:47.917Z,50.40
2019-04-05T16:13:17.522Z,50.60
2019-04-05T16:15:46.798Z,51.30
2019-04-05T16:18:18.952Z,51.60
2019-04-05T16:20:49.136Z,51.70
2019-04-05T16:23:18.850Z,52.60
2019-04-05T16:25:48.434Z,52.50
2019-04-05T16:28:17.626Z,52.90
2019-04-05T16:30:46.828Z,53.00
2019-04-05T16:33:16.394Z,53.10
2019-04-05T16:35:45.735Z,54.10
2019-04-05T16:38:15.543Z,54.70
2019-04-05T16:40:45.837Z,55.20
2019-04-05T16:43:15.097Z,55.60
2019-04-05T16:45:44.672Z,55.60
2019-04-05T16:48:14.510Z,56.10
2019-04-05T16:51:22.734Z,56.70
2019-04-05T16:54:01.761Z,57.70
2019-04-05T16:56:32.140Z,58.10
2019-04-05T16:59:01.454Z,58.10
2019-04-05T17:01:30.738Z,58.40
2019-04-05T17:04:00.874Z,58.60
2019-04-05T17:06:30.137Z,59.80
2019-04-05T17:08:59.671Z,59.90
2019-04-05T17:11:29.575Z,60.40
2019-04-05T17:13:59.621Z,60.10
2019-04-05T17:16:29.016Z,60.50
2019-04-05T17:18:58.450Z,61.40
2019-04-05T17:21:28.176Z,62.40
2019-04-05T17:23:57.510Z,62.20
2019-04-05T17:26:26.733Z,62.20
2019-04-05T17:28:55.935Z,64.10
2019-04-05T17:31:25.284Z,64.30
2019-04-05T17:33:54.789Z,65.20
2019-04-05T17:36:24.306Z,65.90
2019-04-05T17:38:53.877Z,67.30
2019-04-05T17:41:23.138Z,68.20
2019-04-05T17:43:52.353Z,69.60
2019-04-05T17:46:21.598Z,71.00
2019-04-05T17:48:51.845Z,72.50
2019-04-05T17:51:21.336Z,74.40
2019-04-05T17:53:50.747Z,75.60
2019-04-05T17:56:20.771Z,76.40
2019-04-05T17:58:51.227Z,78.60
2019-04-05T18:01:20.935Z,78.70
2019-04-05T18:03:50.528Z,79.50
2019-04-05T18:06:19.761Z,79.50
2019-04-05T18:08:49.154Z,80.80
2019-04-05T18:11:18.392Z,81.60
2019-04-05T18:13:47.961Z,82.40
2019-04-05T18:16:17.127Z,85.20
2019-04-05T18:18:46.386Z,84.60
2019-04-05T18:21:16.053Z,85.50
2019-04-05T18:23:46.102Z,85.50
2019-04-05T18:26:15.406Z,86.30
2019-04-05T18:28:44.940Z,86.80
2019-04-05T18:31:14.208Z,87.80
2019-04-05T18:33:43.704Z,89.50
2019-04-05T18:36:13.313Z,89.10
2019-04-05T18:38:42.544Z,88.80
2019-04-05T18:41:12.118Z,88.80
2019-04-05T18:43:41.316Z,89.20
2019-04-05T18:46:10.683Z,90.00
2019-04-05T18:48:40.500Z,90.20
2019-04-05T18:51:10.332Z,90.50
2019-04-05T18:53:40.213Z,91.00
2019-04-05T18:56:09.508Z,91.00
2019-04-05T18:58:39.200Z,91.00
2019-04-05T19:01:08.476Z,91.50
2019-04-05T19:03:37.968Z,91.40
2019-04-05T19:06:07.188Z,91.90
2019-04-05T19:08:40.001Z,92.20
2019-04-05T19:11:07.547Z,92.20
2019-04-05T19:13:36.738Z,92.50
2019-04-05T19:16:06.314Z,93.00
2019-04-05T19:18:35.780Z,93.30
2019-04-05T19:21:05.321Z,93.80
2019-04-05T19:23:34.795Z,94.10
2019-04-05T19:26:03.977Z,94.20
2019-04-05T19:28:33.262Z,94.30
2019-04-05T19:48:39.704Z,95.00
2019-04-05T19:51:08.998Z,95.00
2019-04-05T19:53:38.172Z,95.00
2019-04-05T19:56:07.340Z,95.00
2019-04-05T19:58:36.637Z,95.10
2019-04-05T20:01:06.271Z,95.10
2019-04-05T20:03:35.576Z,95.10
2019-04-05T20:06:04.844Z,95.30
2019-04-05T20:08:34.068Z,95.20
2019-04-05T20:11:03.816Z,95.40
2019-04-05T20:13:33.106Z,95.70
2019-04-05T20:16:02.288Z,95.70
2019-04-05T20:18:31.756Z,95.80
2019-04-05T20:21:00.964Z,95.90
2019-04-05T20:23:30.178Z,96.10
2019-04-05T20:25:59.420Z,96.30
2019-04-05T20:28:29.070Z,96.40
2019-04-05T20:30:58.370Z,96.70
2019-04-05T20:33:27.620Z,96.90
2019-04-05T20:35:57.177Z,97.00
2019-04-05T20:38:26.755Z,97.20
2019-04-05T20:40:56.012Z,97.20
2019-04-05T20:43:25.266Z,97.40
2019-04-05T20:45:54.792Z,97.50
2019-04-05T20:48:24.060Z,97.70
2019-04-05T20:50:53.220Z,97.70
2019-04-05T20:53:22.388Z,97.80
2019-04-05T20:55:51.936Z,98.00
2019-04-05T20:58:21.118Z,98.10
2019-04-05T21:00:50.298Z,98.20
2019-04-05T21:03:20.156Z,98.30
2019-04-05T21:05:49.322Z,98.40
2019-04-05T21:08:18.613Z,98.50
2019-04-05T21:10:47.877Z,98.80
2019-04-05T21:13:17.394Z,98.70
2019-04-05T21:15:46.581Z,98.90
2019-04-05T21:18:16.516Z,98.70
2019-04-05T21:20:46.195Z,98.80
2019-04-05T21:23:15.929Z,99.10
2019-04-05T21:25:45.186Z,99.10
2019-04-05T21:28:14.915Z,99.10
2019-04-05T21:30:44.200Z,99.20
2019-04-05T21:33:13.781Z,99.40
2019-04-05T21:35:45.868Z,99.40
2019-04-05T21:38:15.451Z,99.60
2019-04-05T21:40:45.145Z,99.70
2019-04-05T21:43:14.812Z,99.90
2019-04-05T21:45:44.114Z,99.90
2019-04-05T21:48:13.823Z,99.90
2019-04-05T21:50:43.563Z,99.90
2019-04-05T21:53:12.954Z,99.90
2019-04-05T21:55:42.389Z,99.90
2019-04-05T21:58:11.776Z,99.90
2019-04-05T22:00:45.974Z,99.90
2019-04-05T22:03:15.271Z,99.90
2019-04-05T22:05:45.280Z,99.90
2019-04-05T22:08:14.669Z,99.90
2019-04-05T22:10:44.006Z,99.90
2019-04-05T22:13:13.742Z,99.90
2019-04-05T22:15:43.055Z,99.90
2019-04-05T22:18:12.723Z,99.90
2019-04-05T22:20:42.371Z,99.90
2019-04-05T22:23:11.784Z,99.90
2019-04-05T22:25:41.543Z,99.90
2019-04-05T22:28:10.967Z,99.90
2019-04-05T22:30:40.291Z,99.90
2019-04-05T22:33:09.619Z,99.90
2019-04-05T22:35:39.668Z,99.90
2019-04-05T22:38:09.074Z,99.90
2019-04-05T22:40:38.473Z,99.90
2019-04-05T22:43:07.805Z,99.90
2019-04-05T22:45:37.211Z,99.90
2019-04-05T22:48:06.546Z,99.90
2019-04-05T22:50:35.881Z,99.90
2019-04-05T22:53:05.577Z,99.90
2019-04-05T22:55:35.359Z,99.90
2019-04-05T22:58:05.487Z,99.90
2019-04-05T23:00:34.803Z,99.90
2019-04-05T23:03:04.136Z,99.90
2019-04-05T23:05:33.589Z,99.90
2019-04-05T23:08:03.331Z,99.90
2019-04-05T23:10:32.667Z,99.90
2019-04-05T23:13:02.548Z,99.90
2019-04-05T23:15:31.976Z,99.90
2019-04-05T23:18:01.303Z,99.90
2019-04-05T23:20:30.611Z,99.90
2019-04-05T23:23:00.263Z,99.90
2019-04-05T23:25:29.653Z,99.90
2019-04-05T23:27:58.974Z,99.90
2019-04-05T23:30:29.209Z,99.90
2019-04-05T23:32:58.691Z,99.90
2019-04-05T23:35:28.112Z,99.90
2019-04-05T23:37:57.778Z,99.90
2019-04-05T23:40:27.106Z,99.90
2019-04-05T23:42:56.784Z,99.90
2019-04-05T23:45:26.187Z,99.90
2019-04-05T23:47:55.557Z,99.90
2019-04-05T23:50:24.906Z,99.90
2019-04-05T23:52:54.209Z,99.90
2019-04-05T23:55:32.742Z,99.90
2019-04-05T23:57:54.571Z,99.90
